Time;durP1;ratioP1;P1;durP2;ratioP2;P2;SDS_P1;SDS_P2;PMS_P1;PMS_P2;Temp;Humidity;BMP_temperature;BMP_pressure;BME280_temperature;BME280_humidity;BME280_pressure;Samples;Min_cycle;Max_cycle;Signal;HPM_P1;HPM_P2
2021/12/23 00:00:11;;;;;;;22.88;17.08;;;-1.10;99.90;;;;;;4931558;29;20125;-48
2021/12/23 00:02:38;;;;;;;23.63;17.05;;;-1.10;99.90;;;;;;4949306;29;20301;-47
2021/12/23 00:05:08;;;;;;;28.08;17.15;;;-1.10;99.90;;;;;;4936239;29;20059;-47
2021/12/23 00:07:35;;;;;;;23.15;16.40;;;-1.10;99.90;;;;;;4931443;28;20426;-50
2021/12/23 00:10:05;;;;;;;24.75;17.83;;;-1.00;99.90;;;;;;4948195;29;20074;-49
2021/12/23 00:12:50;;;;;;;25.02;18.15;;;-1.00;99.90;;;;;;4931552;29;20050;-47
2021/12/23 00:15:31;;;;;;;21.95;16.35;;;-1.00;99.90;;;;;;4949234;28;20047;-47
2021/12/23 00:18:02;;;;;;;26.17;17.92;;;-1.00;99.90;;;;;;4949846;28;20054;-49
2021/12/23 00:25:50;;;;;;;24.92;16.83;;;-1.00;99.90;;;;;;4930616;29;20086;-47
2021/12/23 00:28:16;;;;;;;23.55;16.88;;;-1.00;99.90;;;;;;4947007;28;20058;-48
2021/12/23 00:30:42;;;;;;;20.60;15.70;;;-1.00;99.90;;;;;;4927721;29;20059;-47
2021/12/23 00:33:08;;;;;;;26.00;18.48;;;-0.90;99.90;;;;;;4948527;28;20161;-48
2021/12/23 00:35:34;;;;;;;23.88;16.80;;;-0.90;99.90;;;;;;4958981;28;20114;-47
2021/12/23 00:38:04;;;;;;;24.38;16.90;;;-0.90;99.90;;;;;;4947714;28;20467;-47
2021/12/23 00:40:30;;;;;;;23.65;16.70;;;-0.90;99.90;;;;;;4946373;28;20047;-49
2021/12/23 00:42:56;;;;;;;24.00;17.00;;;-0.90;99.90;;;;;;4947889;28;20047;-47
2021/12/23 00:45:22;;;;;;;24.60;15.77;;;-0.90;99.90;;;;;;4956087;28;20043;-48
2021/12/23 00:47:48;;;;;;;22.95;16.77;;;-0.80;99.90;;;;;;4926800;29;20383;-50
2021/12/23 00:50:14;;;;;;;24.73;17.38;;;-0.90;99.90;;;;;;4945942;29;20454;-49
2021/12/23 00:52:43;;;;;;;21.98;16.50;;;-0.90;99.90;;;;;;4948343;29;20199;-49
2021/12/23 00:55:11;;;;;;;24.58;17.65;;;-0.90;99.90;;;;;;4947788;29;20573;-47
2021/12/23 00:57:39;;;;;;;21.67;16.98;;;-0.80;99.90;;;;;;4946760;29;20050;-48
2021/12/23 01:00:08;;;;;;;24.70;17.48;;;-0.90;99.90;;;;;;4927198;29;20535;-48
2021/12/23 01:02:34;;;;;;;22.08;16.98;;;-0.90;99.90;;;;;;4941002;29;20085;-47
2021/12/23 01:05:04;;;;;;;24.40;17.48;;;-0.90;99.90;;;;;;4939344;29;20162;-48
2021/12/23 01:07:29;;;;;;;25.27;17.42;;;-0.80;99.90;;;;;;4948017;29;20120;-48
2021/12/23 01:10:02;;;;;;;22.48;16.08;;;-0.80;99.90;;;;;;4946800;28;20167;-49
2021/12/23 01:12:34;;;;;;;23.15;16.20;;;-0.80;99.90;;;;;;4941678;29;20051;-47
2021/12/23 01:15:17;;;;;;;22.85;16.65;;;-0.80;99.90;;;;;;4930624;29;20063;-49
2021/12/23 01:17:55;;;;;;;26.08;17.58;;;-0.80;99.90;;;;;;4927826;29;20082;-48
2021/12/23 01:20:35;;;;;;;24.90;16.98;;;-0.80;99.90;;;;;;4929667;29;20059;-49
2021/12/23 01:23:05;;;;;;;22.50;17.88;;;-0.80;99.90;;;;;;4939149;28;20051;-50
2021/12/23 01:25:32;;;;;;;30.83;17.52;;;-0.80;99.90;;;;;;4931635;29;20498;-48
2021/12/23 01:27:58;;;;;;;23.95;17.50;;;-0.80;99.90;;;;;;4948716;29;20105;-50
2021/12/23 01:30:25;;;;;;;24.33;16.85;;;-0.80;99.90;;;;;;4914816;28;20418;-47
2021/12/23 01:32:56;;;;;;;23.27;17.17;;;-0.80;99.90;;;;;;4946604;28;20062;-48
2021/12/23 01:35:25;;;;;;;23.60;16.42;;;-0.80;99.90;;;;;;4949522;28;20058;-47
2021/12/23 01:37:52;;;;;;;23.25;17.63;;;-0.80;99.90;;;;;;4944487;28;20486;-49
2021/12/23 01:40:19;;;;;;;21.77;16.10;;;-0.80;99.90;;;;;;4946215;28;20142;-48
2021/12/23 01:42:45;;;;;;;23.02;17.05;;;-0.80;99.90;;;;;;4946340;28;20148;-48
2021/12/23 01:45:18;;;;;;;24.50;17.30;;;-0.80;99.90;;;;;;4938932;28;20055;-47
2021/12/23 01:47:45;;;;;;;22.63;15.77;;;-0.80;99.90;;;;;;4928252;29;20063;-47
2021/12/23 01:50:15;;;;;;;23.40;17.00;;;-0.80;99.90;;;;;;4945305;29;20055;-47
2021/12/23 01:52:41;;;;;;;24.50;17.48;;;-0.80;99.90;;;;;;4928039;29;20066;-47
2021/12/23 01:55:09;;;;;;;25.05;17.48;;;-0.80;99.90;;;;;;4944340;29;20158;-47
2021/12/23 01:57:35;;;;;;;24.05;17.70;;;-0.80;99.90;;;;;;4944726;28;20461;-47
2021/12/23 02:00:06;;;;;;;24.90;17.02;;;-0.80;99.90;;;;;;4946721;29;20058;-48
2021/12/23 02:02:33;;;;;;;26.48;18.75;;;-0.80;99.90;;;;;;4928761;29;20055;-48
2021/12/23 02:05:06;;;;;;;26.77;17.88;;;-0.90;99.90;;;;;;4945802;29;20130;-47
2021/12/23 02:07:32;;;;;;;26.17;17.95;;;-0.90;99.90;;;;;;4945433;29;20055;-47
2021/12/23 02:10:06;;;;;;;22.65;17.00;;;-0.90;99.90;;;;;;4943209;28;20466;-48
2021/12/23 02:12:33;;;;;;;27.95;19.02;;;-0.90;99.90;;;;;;4945928;29;20455;-48
2021/12/23 02:14:59;;;;;;;26.35;18.63;;;-0.90;99.90;;;;;;4946858;29;20083;-49
2021/12/23 02:17:24;;;;;;;26.50;19.15;;;-0.90;99.90;;;;;;4928640;29;20490;-47
2021/12/23 02:19:54;;;;;;;23.85;17.77;;;-0.90;99.90;;;;;;4946950;29;20486;-48
2021/12/23 02:22:20;;;;;;;29.05;18.40;;;-0.90;99.90;;;;;;4945672;28;20055;-48
2021/12/23 02:24:45;;;;;;;24.67;18.20;;;-0.90;99.90;;;;;;4945310;29;20053;-50
2021/12/23 02:27:11;;;;;;;24.20;17.15;;;-0.90;99.90;;;;;;4948791;29;20125;-50
2021/12/23 02:29:38;;;;;;;29.67;18.98;;;-0.90;99.90;;;;;;4946300;29;20936;-49
2021/12/23 02:32:06;;;;;;;26.33;18.23;;;-0.80;99.90;;;;;;4945823;28;20043;-48
2021/12/23 02:34:32;;;;;;;26.55;18.15;;;-0.90;99.90;;;;;;4952799;28;20050;-48
2021/12/23 02:36:59;;;;;;;23.70;18.13;;;-0.80;99.90;;;;;;4959351;28;20532;-49
2021/12/23 02:39:27;;;;;;;30.63;18.13;;;-0.80;99.90;;;;;;4944678;28;20063;-47
2021/12/23 02:41:53;;;;;;;25.50;17.92;;;-0.80;99.90;;;;;;4944797;28;20063;-47
2021/12/23 02:44:20;;;;;;;27.50;19.17;;;-0.80;99.90;;;;;;4927049;29;20047;-51
2021/12/23 02:46:46;;;;;;;25.33;18.00;;;-0.80;99.90;;;;;;4909370;29;20047;-48
2021/12/23 02:49:12;;;;;;;30.10;18.67;;;-0.80;99.90;;;;;;4945710;29;20424;-48
2021/12/23 02:51:38;;;;;;;26.85;19.08;;;-0.80;99.90;;;;;;4944968;29;20126;-47
2021/12/23 02:54:04;;;;;;;27.77;19.15;;;-0.80;99.90;;;;;;4943736;28;20067;-49
2021/12/23 02:56:30;;;;;;;26.08;19.23;;;-0.80;99.90;;;;;;4933235;29;20051;-47
2021/12/23 02:58:56;;;;;;;26.60;18.95;;;-0.80;99.90;;;;;;4947037;29;20047;-48
2021/12/23 03:01:23;;;;;;;23.98;18.00;;;-0.80;99.90;;;;;;4936142;29;20059;-48
2021/12/23 03:03:49;;;;;;;23.08;17.17;;;-0.80;99.90;;;;;;4945331;29;20416;-47
2021/12/23 03:06:18;;;;;;;25.85;17.70;;;-0.80;99.90;;;;;;4944603;29;20058;-51
2021/12/23 03:08:46;;;;;;;27.02;19.30;;;-0.80;99.90;;;;;;4944392;28;20515;-47
2021/12/23 03:11:15;;;;;;;29.33;18.27;;;-0.80;99.90;;;;;;4949423;29;20121;-47
2021/12/23 03:13:41;;;;;;;24.67;18.35;;;-0.80;99.90;;;;;;4946763;28;20062;-49
2021/12/23 03:16:08;;;;;;;26.65;19.38;;;-0.90;99.90;;;;;;4947594;29;20151;-47
2021/12/23 03:18:34;;;;;;;26.15;18.38;;;-0.90;99.90;;;;;;4930675;29;20110;-48
2021/12/23 03:21:01;;;;;;;25.67;18.20;;;-0.90;99.90;;;;;;4948714;29;20051;-48
2021/12/23 03:23:29;;;;;;;26.27;18.48;;;-0.90;99.90;;;;;;4948144;29;20090;-50
2021/12/23 03:25:55;;;;;;;26.65;18.92;;;-0.90;99.90;;;;;;4948355;29;20126;-49
2021/12/23 03:28:21;;;;;;;24.42;18.08;;;-0.80;99.90;;;;;;4949364;29;20054;-48
2021/12/23 03:30:48;;;;;;;24.83;17.60;;;-0.90;99.90;;;;;;4950402;29;20158;-47
2021/12/23 03:33:13;;;;;;;25.67;18.77;;;-0.80;99.90;;;;;;4930115;29;20047;-48
2021/12/23 03:35:40;;;;;;;23.20;18.15;;;-0.90;99.90;;;;;;4946893;29;20109;-51
2021/12/23 03:38:06;;;;;;;28.38;18.80;;;-0.80;99.90;;;;;;4929662;29;20051;-47
2021/12/23 03:40:33;;;;;;;27.77;19.23;;;-0.80;99.90;;;;;;4947085;28;20062;-47
2021/12/23 03:42:58;;;;;;;27.77;18.58;;;-0.80;99.90;;;;;;4946795;28;20078;-47
2021/12/23 03:45:24;;;;;;;25.88;17.85;;;-0.80;99.90;;;;;;4945012;28;20186;-46
2021/12/23 03:47:50;;;;;;;24.98;18.83;;;-0.70;99.90;;;;;;4943169;28;20125;-47
2021/12/23 03:50:19;;;;;;;26.15;18.25;;;-0.70;99.90;;;;;;4945733;28;20449;-48
2021/12/23 03:52:45;;;;;;;33.38;19.40;;;-0.70;99.90;;;;;;4928675;29;20110;-48
2021/12/23 03:55:11;;;;;;;23.92;18.55;;;-0.70;99.90;;;;;;4913071;29;20067;-47
2021/12/23 03:57:37;;;;;;;26.13;17.73;;;-0.70;99.90;;;;;;4928816;29;20055;-48
2021/12/23 04:00:07;;;;;;;28.25;18.73;;;-0.70;99.90;;;;;;4946593;28;20114;-47
2021/12/23 04:02:32;;;;;;;23.27;18.02;;;-0.70;99.90;;;;;;4940238;28;20105;-48
2021/12/23 04:04:59;;;;;;;26.63;18.55;;;-0.60;99.90;;;;;;4946624;28;20576;-46
2021/12/23 04:07:24;;;;;;;25.58;18.83;;;-0.60;99.90;;;;;;4924638;29;20138;-48
2021/12/23 04:09:50;;;;;;;25.38;17.83;;;-0.60;99.90;;;;;;4945949;28;20368;-47
2021/12/23 04:12:16;;;;;;;26.45;19.27;;;-0.60;99.90;;;;;;4945894;28;20129;-48
2021/12/23 04:14:41;;;;;;;28.15;19.30;;;-0.60;99.90;;;;;;4946055;28;20554;-48
2021/12/23 04:17:07;;;;;;;27.27;19.67;;;-0.60;99.90;;;;;;4927596;28;20105;-48
2021/12/23 04:19:33;;;;;;;26.55;20.00;;;-0.60;99.90;;;;;;4941943;28;20075;-48
2021/12/23 04:22:02;;;;;;;27.70;19.02;;;-0.60;99.90;;;;;;4933015;28;20055;-47
2021/12/23 04:24:28;;;;;;;24.55;18.95;;;-0.60;99.90;;;;;;4945515;28;20054;-47
2021/12/23 04:26:54;;;;;;;25.98;18.85;;;-0.60;99.90;;;;;;4925381;28;20063;-47
2021/12/23 04:29:19;;;;;;;28.27;20.15;;;-0.60;99.90;;;;;;4927856;29;20074;-48
2021/12/23 04:31:45;;;;;;;26.52;18.55;;;-0.60;99.90;;;;;;4946731;28;20051;-48
2021/12/23 04:34:11;;;;;;;27.98;19.42;;;-0.60;99.90;;;;;;4936939;28;20090;-49
2021/12/23 04:36:37;;;;;;;31.17;21.88;;;-0.60;99.90;;;;;;4945520;28;20850;-50
2021/12/23 04:39:04;;;;;;;29.88;20.38;;;-0.60;99.90;;;;;;4942171;28;20047;-51
2021/12/23 04:41:31;;;;;;;29.00;19.70;;;-0.60;99.90;;;;;;4940344;28;20118;-47
2021/12/23 04:43:57;;;;;;;28.63;20.38;;;-0.60;99.90;;;;;;4925651;29;20052;-47
2021/12/23 04:46:23;;;;;;;28.33;20.20;;;-0.60;99.90;;;;;;4928001;28;20138;-48
2021/12/23 04:48:51;;;;;;;29.40;20.38;;;-0.60;99.90;;;;;;4941356;28;20054;-48
2021/12/23 04:51:17;;;;;;;30.98;20.45;;;-0.60;99.90;;;;;;4928396;28;20117;-47
2021/12/23 04:53:44;;;;;;;29.02;22.00;;;-0.60;99.90;;;;;;4946840;28;20055;-47
2021/12/23 04:56:12;;;;;;;28.98;20.83;;;-0.60;99.90;;;;;;4912033;28;20035;-49
2021/12/23 04:58:39;;;;;;;31.30;23.05;;;-0.50;99.90;;;;;;4943917;28;20055;-47
2021/12/23 05:01:06;;;;;;;28.90;22.10;;;-0.50;99.90;;;;;;4954394;28;20103;-47
2021/12/23 05:03:32;;;;;;;29.35;21.70;;;-0.50;99.90;;;;;;4953289;28;20055;-48
2021/12/23 05:05:58;;;;;;;29.88;21.27;;;-0.50;99.90;;;;;;4945323;28;20585;-48
2021/12/23 05:08:24;;;;;;;29.38;21.38;;;-0.50;99.90;;;;;;4947455;28;20173;-48
2021/12/23 05:10:49;;;;;;;31.70;22.25;;;-0.50;99.90;;;;;;4924937;28;20086;-48
2021/12/23 05:13:15;;;;;;;30.77;22.00;;;-0.50;99.90;;;;;;4945172;28;20055;-47
2021/12/23 05:15:41;;;;;;;34.10;22.55;;;-0.50;99.90;;;;;;4938764;28;20059;-47
2021/12/23 05:18:08;;;;;;;30.65;22.52;;;-0.50;99.90;;;;;;4943338;28;20050;-47
2021/12/23 05:20:34;;;;;;;31.90;22.45;;;-0.50;99.90;;;;;;4926184;29;20218;-47
2021/12/23 05:22:59;;;;;;;29.65;21.38;;;-0.50;99.90;;;;;;4943724;28;20043;-48
2021/12/23 05:25:25;;;;;;;35.10;22.45;;;-0.50;99.90;;;;;;4945375;28;20133;-47
2021/12/23 05:27:55;;;;;;;30.25;21.52;;;-0.50;99.90;;;;;;4945766;28;20082;-47
2021/12/23 05:30:24;;;;;;;29.50;20.60;;;-0.50;99.90;;;;;;4945442;28;20051;-49
2021/12/23 05:32:50;;;;;;;31.10;21.35;;;-0.40;99.90;;;;;;4946241;28;20047;-49
2021/12/23 05:35:17;;;;;;;31.05;21.50;;;-0.40;99.90;;;;;;4949993;28;20047;-47
2021/12/23 05:37:44;;;;;;;28.55;22.15;;;-0.40;99.90;;;;;;4933823;28;20055;-47
2021/12/23 05:40:13;;;;;;;31.88;21.80;;;-0.40;99.90;;;;;;4947322;28;20097;-50
2021/12/23 05:42:39;;;;;;;30.92;22.58;;;-0.40;99.90;;;;;;4947749;28;20158;-50
2021/12/23 05:45:05;;;;;;;28.52;21.27;;;-0.40;99.90;;;;;;4945010;28;20574;-47
2021/12/23 05:47:33;;;;;;;30.58;22.25;;;-0.40;99.90;;;;;;4942585;28;20051;-48
2021/12/23 05:49:58;;;;;;;32.22;23.40;;;-0.30;99.90;;;;;;4945612;28;20049;-48
2021/12/23 05:52:24;;;;;;;30.67;22.45;;;-0.30;99.90;;;;;;4944962;28;20051;-47
2021/12/23 05:54:50;;;;;;;31.88;21.90;;;-0.30;99.90;;;;;;4945832;29;20565;-48
2021/12/23 05:57:17;;;;;;;32.53;21.80;;;-0.30;99.90;;;;;;4945375;28;20054;-47
2021/12/23 05:59:43;;;;;;;29.20;21.02;;;-0.30;99.90;;;;;;4944930;28;20602;-47
2021/12/23 06:02:09;;;;;;;30.20;22.80;;;-0.30;99.90;;;;;;4944619;28;20068;-47
2021/12/23 06:04:35;;;;;;;30.10;21.23;;;-0.30;99.90;;;;;;4944149;28;20051;-47
2021/12/23 06:07:03;;;;;;;29.55;21.13;;;-0.30;99.90;;;;;;4926642;29;20055;-46
2021/12/23 06:09:32;;;;;;;30.48;21.88;;;-0.30;99.90;;;;;;4926265;29;20593;-48
2021/12/23 06:11:59;;;;;;;29.95;20.88;;;-0.30;99.90;;;;;;4942920;28;20094;-48
2021/12/23 06:14:24;;;;;;;37.03;23.58;;;-0.30;99.90;;;;;;4943695;28;20130;-47
2021/12/23 06:16:50;;;;;;;30.67;21.45;;;-0.30;99.90;;;;;;4921606;29;20491;-47
2021/12/23 06:19:16;;;;;;;29.25;21.55;;;-0.20;99.90;;;;;;4942291;28;20133;-48
2021/12/23 06:21:41;;;;;;;29.08;22.08;;;-0.20;99.90;;;;;;4943740;28;20122;-47
2021/12/23 06:24:07;;;;;;;31.00;22.40;;;-0.20;99.90;;;;;;4944488;28;20055;-47
2021/12/23 06:26:33;;;;;;;35.80;23.42;;;-0.20;99.90;;;;;;4944928;28;20047;-47
2021/12/23 06:28:59;;;;;;;30.63;22.75;;;-0.20;99.90;;;;;;4936755;28;20141;-47
2021/12/23 06:31:25;;;;;;;32.75;23.40;;;-0.20;99.90;;;;;;4925237;29;20138;-48
2021/12/23 06:33:51;;;;;;;32.92;23.75;;;-0.20;99.90;;;;;;4927472;28;20176;-48
2021/12/23 06:36:17;;;;;;;32.25;22.95;;;-0.20;99.90;;;;;;4923072;29;20065;-47
2021/12/23 06:38:48;;;;;;;30.38;22.65;;;-0.20;99.90;;;;;;4942625;28;20109;-48
2021/12/23 06:41:16;;;;;;;31.90;22.85;;;-0.20;99.90;;;;;;4943529;28;20048;-49
2021/12/23 06:43:45;;;;;;;32.83;22.73;;;-0.20;99.90;;;;;;4910175;28;20070;-51
2021/12/23 06:46:11;;;;;;;31.15;22.88;;;-0.30;99.90;;;;;;4945597;28;20091;-51
2021/12/23 06:48:38;;;;;;;30.85;23.02;;;-0.30;99.90;;;;;;4944700;28;20279;-47
2021/12/23 06:51:05;;;;;;;30.95;20.95;;;-0.30;99.90;;;;;;4943295;28;20051;-48
2021/12/23 06:53:31;;;;;;;28.55;22.73;;;-0.20;99.90;;;;;;4943288;28;20459;-48
2021/12/23 06:55:57;;;;;;;32.80;23.50;;;-0.30;99.90;;;;;;4943648;28;20051;-47
2021/12/23 06:58:24;;;;;;;33.88;23.73;;;-0.20;99.90;;;;;;4943234;28;20098;-48
2021/12/23 07:00:51;;;;;;;37.55;25.08;;;-0.30;99.90;;;;;;4925461;29;20090;-47
2021/12/23 07:03:17;;;;;;;32.75;23.25;;;-0.30;99.90;;;;;;4943275;28;20047;-47
2021/12/23 07:05:43;;;;;;;33.13;23.33;;;-0.30;99.90;;;;;;4925136;29;20063;-46
2021/12/23 07:08:24;;;;;;;32.78;24.85;;;-0.30;99.90;;;;;;4926676;28;20097;-47
2021/12/23 07:10:50;;;;;;;32.75;24.00;;;-0.30;99.90;;;;;;4943925;28;20561;-49
2021/12/23 07:13:16;;;;;;;31.40;23.60;;;-0.30;99.90;;;;;;4925190;28;20511;-47
2021/12/23 07:15:41;;;;;;;31.80;24.20;;;-0.30;99.90;;;;;;4924375;29;20059;-49
2021/12/23 07:18:07;;;;;;;31.02;23.50;;;-0.30;99.90;;;;;;4942271;28;20457;-48
2021/12/23 07:20:34;;;;;;;33.92;24.35;;;-0.30;99.90;;;;;;4926096;29;20077;-47
2021/12/23 07:23:00;;;;;;;33.58;23.45;;;-0.30;99.90;;;;;;4912242;29;20099;-47
2021/12/23 07:25:27;;;;;;;33.22;22.45;;;-0.30;99.90;;;;;;4920163;29;20467;-47
2021/12/23 07:27:53;;;;;;;32.30;23.38;;;-0.30;99.90;;;;;;4944566;28;20455;-48
2021/12/23 07:30:20;;;;;;;32.70;25.60;;;-0.30;99.90;;;;;;4951428;28;20158;-49
2021/12/23 07:32:47;;;;;;;33.28;25.17;;;-0.30;99.90;;;;;;4950189;28;20140;-47
2021/12/23 07:35:19;;;;;;;36.55;25.20;;;-0.30;99.90;;;;;;4927081;28;20062;-50
2021/12/23 07:37:45;;;;;;;32.45;23.63;;;-0.30;99.90;;;;;;4941746;29;20411;-48
2021/12/23 07:40:14;;;;;;;36.65;26.15;;;-0.30;99.90;;;;;;4926264;28;20142;-48
2021/12/23 07:42:44;;;;;;;32.83;23.67;;;-0.20;99.90;;;;;;4942895;28;20087;-48
2021/12/23 07:45:10;;;;;;;34.55;23.58;;;-0.30;99.90;;;;;;4947424;29;20047;-48
2021/12/23 07:47:39;;;;;;;35.45;24.55;;;-0.30;99.90;;;;;;4946935;29;20055;-50
2021/12/23 07:50:05;;;;;;;35.67;25.15;;;-0.30;99.90;;;;;;4947274;29;20945;-48
2021/12/23 07:52:31;;;;;;;35.50;25.10;;;-0.30;99.90;;;;;;4928466;29;20063;-47
2021/12/23 07:54:57;;;;;;;37.40;27.15;;;-0.40;99.90;;;;;;4945433;28;20121;-47
2021/12/23 07:57:22;;;;;;;38.00;27.05;;;-0.40;99.90;;;;;;4945492;28;20059;-47
2021/12/23 07:59:48;;;;;;;39.75;27.15;;;-0.40;99.90;;;;;;4946757;28;20050;-47
2021/12/23 08:02:14;;;;;;;42.22;27.80;;;-0.40;99.90;;;;;;4928778;29;20055;-49
2021/12/23 08:04:40;;;;;;;40.42;28.27;;;-0.40;99.90;;;;;;4947931;28;20134;-47
2021/12/23 08:07:05;;;;;;;42.13;29.85;;;-0.40;99.90;;;;;;4929104;29;20142;-49
2021/12/23 08:09:31;;;;;;;41.90;29.88;;;-0.30;99.90;;;;;;4945816;28;20079;-47
2021/12/23 08:11:59;;;;;;;44.65;29.48;;;-0.40;99.90;;;;;;4945878;28;20046;-47
2021/12/23 08:14:24;;;;;;;39.88;28.77;;;-0.30;99.90;;;;;;4945842;28;20402;-48
2021/12/23 08:16:55;;;;;;;49.22;30.45;;;-0.30;99.90;;;;;;4943931;28;20078;-48
2021/12/23 08:19:21;;;;;;;44.88;29.83;;;-0.30;99.90;;;;;;4940709;28;20187;-48
2021/12/23 08:21:46;;;;;;;42.58;30.63;;;-0.30;99.90;;;;;;4943853;28;20515;-49
2021/12/23 08:24:12;;;;;;;48.65;31.77;;;-0.30;99.90;;;;;;4945575;28;20063;-46
2021/12/23 08:26:44;;;;;;;45.90;32.63;;;-0.30;99.90;;;;;;4911375;29;20086;-49
2021/12/23 08:29:10;;;;;;;45.88;30.50;;;-0.30;99.90;;;;;;4927264;29;20063;-47
2021/12/23 08:31:39;;;;;;;48.53;31.20;;;-0.30;99.90;;;;;;4944638;28;20399;-46
2021/12/23 08:34:04;;;;;;;49.78;31.60;;;-0.30;99.90;;;;;;4946114;28;20499;-47
2021/12/23 08:36:30;;;;;;;53.45;33.75;;;-0.30;99.90;;;;;;4945360;28;20054;-46
2021/12/23 08:38:56;;;;;;;50.78;32.05;;;-0.30;99.90;;;;;;4945647;28;20050;-47
2021/12/23 08:41:22;;;;;;;53.83;34.80;;;-0.30;99.90;;;;;;4944969;28;20051;-48
2021/12/23 08:43:48;;;;;;;54.13;36.05;;;-0.30;99.90;;;;;;4946022;28;20059;-47
2021/12/23 08:46:14;;;;;;;58.35;36.45;;;-0.30;99.90;;;;;;4945366;28;20089;-48
2021/12/23 08:48:40;;;;;;;59.75;37.30;;;-0.30;99.90;;;;;;4947490;28;20122;-46
2021/12/23 08:51:05;;;;;;;59.85;37.85;;;-0.30;99.90;;;;;;4926680;29;20054;-53
2021/12/23 08:53:31;;;;;;;61.42;37.03;;;-0.30;99.90;;;;;;4945036;28;20075;-47
2021/12/23 08:55:57;;;;;;;68.88;40.95;;;-0.30;99.90;;;;;;4943883;28;20600;-47
2021/12/23 08:58:23;;;;;;;70.65;40.92;;;-0.30;99.90;;;;;;4927700;29;20078;-47
2021/12/23 09:00:49;;;;;;;67.38;41.42;;;-0.20;99.90;;;;;;4944214;28;20043;-47
2021/12/23 09:03:14;;;;;;;73.78;42.90;;;-0.20;99.90;;;;;;4945519;28;20078;-47
2021/12/23 09:05:41;;;;;;;76.43;44.85;;;-0.20;99.90;;;;;;4944433;28;20063;-47
2021/12/23 09:08:09;;;;;;;76.20;42.67;;;-0.20;99.90;;;;;;4943406;28;20043;-47
2021/12/23 09:10:35;;;;;;;78.95;42.67;;;-0.20;99.90;;;;;;4943540;28;20399;-47
2021/12/23 09:13:01;;;;;;;80.35;45.35;;;-0.20;99.90;;;;;;4940607;28;20047;-46
2021/12/23 09:15:27;;;;;;;79.80;42.47;;;-0.20;99.90;;;;;;4944310;28;20047;-48
2021/12/23 09:17:53;;;;;;;81.70;44.05;;;-0.10;99.90;;;;;;4945056;28;20608;-46
2021/12/23 09:20:21;;;;;;;77.03;43.53;;;-0.10;99.90;;;;;;4944219;28;20421;-50
2021/12/23 09:22:48;;;;;;;80.53;44.00;;;-0.10;99.90;;;;;;4943804;28;20243;-48
2021/12/23 09:25:29;;;;;;;80.90;44.60;;;-0.10;99.90;;;;;;4933659;28;20158;-47
2021/12/23 09:28:13;;;;;;;81.75;44.50;;;-0.10;99.90;;;;;;4949694;28;20405;-48
2021/12/23 09:33:23;;;;;;;81.82;44.88;;;0.00;99.90;;;;;;4943816;28;20086;-47
2021/12/23 09:35:49;;;;;;;77.90;43.05;;;0.00;99.90;;;;;;4950777;28;20077;-49
2021/12/23 09:38:16;;;;;;;87.07;45.42;;;0.00;99.90;;;;;;4943977;28;20490;-47
2021/12/23 09:40:42;;;;;;;91.43;45.60;;;0.00;99.90;;;;;;4944001;28;20672;-47
2021/12/23 09:43:11;;;;;;;87.32;46.20;;;0.00;99.90;;;;;;4944105;28;20117;-47
2021/12/23 09:45:39;;;;;;;89.57;45.30;;;0.00;99.90;;;;;;4910526;29;20051;-48
2021/12/23 09:48:06;;;;;;;94.10;48.53;;;0.00;99.90;;;;;;4944311;28;20082;-47
2021/12/23 09:50:40;;;;;;;84.30;45.65;;;0.00;99.90;;;;;;4940873;28;20529;-47
2021/12/23 09:53:07;;;;;;;89.07;44.92;;;0.00;99.90;;;;;;4939988;28;20043;-48
2021/12/23 09:55:35;;;;;;;91.50;48.47;;;0.00;99.90;;;;;;4946836;28;20047;-47
2021/12/23 09:58:03;;;;;;;91.60;46.00;;;0.00;99.90;;;;;;4930979;29;20054;-47
2021/12/23 10:00:31;;;;;;;94.95;47.90;;;0.00;99.90;;;;;;4938280;28;20097;-47
2021/12/23 10:02:58;;;;;;;92.35;46.00;;;0.00;99.90;;;;;;4927255;28;20648;-47
2021/12/23 10:05:27;;;;;;;95.55;51.08;;;0.00;99.90;;;;;;4943217;28;20070;-47
2021/12/23 10:07:54;;;;;;;91.70;46.17;;;0.10;99.90;;;;;;4943392;28;20150;-47
2021/12/23 10:10:27;;;;;;;96.28;48.22;;;0.10;99.90;;;;;;4935638;28;20051;-48
2021/12/23 10:39:52;;;;;;;105.85;49.33;;;0.10;99.90;;;;;;4942535;28;20068;-46
2021/12/23 10:42:27;;;;;;;101.03;47.45;;;0.10;99.90;;;;;;4943661;28;20059;-47
2021/12/23 10:45:09;;;;;;;98.97;46.95;;;0.10;99.90;;;;;;4945180;28;20047;-47
2021/12/23 10:47:46;;;;;;;108.65;49.67;;;0.10;99.90;;;;;;4943746;28;20079;-47
2021/12/23 10:53:09;;;;;;;94.78;47.05;;;0.20;99.90;;;;;;4943122;28;20059;-47
2021/12/23 10:58:21;;;;;;;104.22;49.22;;;0.20;99.90;;;;;;4943145;28;20118;-50
2021/12/23 11:00:53;;;;;;;101.10;49.47;;;0.20;99.90;;;;;;4946435;28;20053;-49
2021/12/23 11:03:32;;;;;;;107.97;51.78;;;0.20;99.90;;;;;;4942929;28;20142;-53
2021/12/23 11:06:21;;;;;;;109.13;52.20;;;0.20;99.90;;;;;;4924215;28;20190;-48
2021/12/23 11:36:34;;;;;;;104.25;47.53;;;0.30;99.90;;;;;;4923847;29;20048;-46
2021/12/23 11:42:13;;;;;;;102.35;48.03;;;0.30;99.90;;;;;;4904170;29;20052;-47
2021/12/23 11:44:40;;;;;;;117.00;53.50;;;0.30;99.90;;;;;;4905007;29;20640;-47
2021/12/23 11:47:13;;;;;;;105.93;50.90;;;0.30;99.90;;;;;;4889537;29;20145;-47
2021/12/23 11:49:42;;;;;;;106.33;48.90;;;0.30;99.90;;;;;;4904104;29;20071;-47
2021/12/23 11:52:09;;;;;;;111.32;53.92;;;0.30;99.90;;;;;;4905217;29;20154;-46
2021/12/23 11:54:39;;;;;;;106.78;47.47;;;0.30;99.90;;;;;;4906415;29;20200;-47
2021/12/23 11:57:10;;;;;;;109.68;48.97;;;0.40;99.90;;;;;;4904340;29;20060;-48
2021/12/23 11:59:39;;;;;;;103.55;50.88;;;0.40;99.90;;;;;;4905896;29;20066;-49
2021/12/23 12:02:15;;;;;;;101.00;48.15;;;0.40;99.90;;;;;;4890278;29;20476;-49
2021/12/23 12:04:41;;;;;;;105.57;49.38;;;0.40;99.90;;;;;;4891313;29;20151;-49
2021/12/23 12:07:14;;;;;;;98.60;46.40;;;0.40;99.90;;;;;;4909814;29;20189;-47
2021/12/23 12:09:58;;;;;;;100.63;48.25;;;0.50;99.90;;;;;;4906607;29;20052;-49
2021/12/23 12:12:24;;;;;;;;;;;0.50;99.90;;;;;;4904450;29;20179;-49
2021/12/23 12:14:55;;;;;;;99.85;46.15;;;0.50;99.90;;;;;;4904971;29;19926;-50
2021/12/23 12:17:27;;;;;;;92.20;46.17;;;0.50;99.90;;;;;;4913862;29;20059;-48
2021/12/23 12:19:52;;;;;;;99.72;46.63;;;0.50;99.90;;;;;;4921340;29;20055;-46
2021/12/23 12:22:49;;;;;;;91.18;45.85;;;0.50;99.90;;;;;;4919348;29;20054;-46
2021/12/23 12:25:24;;;;;;;97.93;45.75;;;0.50;99.90;;;;;;4925847;29;20126;-46
2021/12/23 12:27:56;;;;;;;91.45;46.85;;;0.50;99.90;;;;;;4921933;29;20058;-48
2021/12/23 12:30:37;;;;;;;86.15;43.97;;;0.50;99.90;;;;;;4927316;29;20055;-47
2021/12/23 12:33:03;;;;;;;92.80;44.80;;;0.50;99.90;;;;;;4925030;29;20558;-48
2021/12/23 12:35:29;;;;;;;100.90;49.03;;;0.60;99.90;;;;;;4924508;29;20447;-46
2021/12/23 12:38:18;;;;;;;96.95;45.45;;;0.50;99.90;;;;;;4926541;29;20114;-47
2021/12/23 12:41:21;;;;;;;94.07;47.17;;;0.50;99.90;;;;;;4925466;29;20047;-47
2021/12/23 12:43:59;;;;;;;87.97;44.53;;;0.50;99.90;;;;;;4926966;29;20055;-50
2021/12/23 12:46:41;;;;;;;99.93;45.83;;;0.60;99.90;;;;;;4925023;29;20459;-47
2021/12/23 12:49:21;;;;;;;92.43;44.58;;;0.50;99.90;;;;;;4926834;29;20056;-47
2021/12/23 12:51:48;;;;;;;97.93;46.78;;;0.50;99.90;;;;;;4918502;29;20465;-47
2021/12/23 12:54:18;;;;;;;93.95;43.90;;;0.50;99.90;;;;;;4925463;29;20590;-50
2021/12/23 12:56:47;;;;;;;93.35;46.80;;;0.50;99.90;;;;;;4923015;29;20513;-47
2021/12/23 12:59:17;;;;;;;94.60;46.00;;;0.50;99.90;;;;;;4919393;29;20460;-48
2021/12/23 13:01:47;;;;;;;88.85;41.50;;;0.50;99.90;;;;;;4921982;29;20672;-47
2021/12/23 13:04:32;;;;;;;92.80;43.90;;;0.60;99.90;;;;;;4917672;29;20674;-47
2021/12/23 13:07:13;;;;;;;94.38;43.55;;;0.50;99.90;;;;;;4924090;29;20051;-46
2021/12/23 13:10:08;;;;;;;95.82;46.90;;;0.50;99.90;;;;;;4925130;29;20061;-46
2021/12/23 13:12:35;;;;;;;81.75;39.53;;;0.60;99.90;;;;;;4925398;29;20135;-49
2021/12/23 13:15:16;;;;;;;95.13;44.03;;;0.60;99.90;;;;;;4926259;29;20059;-48
2021/12/23 13:18:08;;;;;;;86.90;42.45;;;0.60;99.90;;;;;;4925289;29;21564;-51
2021/12/23 13:20:45;;;;;;;90.63;43.22;;;0.60;99.90;;;;;;4920976;29;20418;-47
2021/12/23 13:23:32;;;;;;;90.80;42.75;;;0.60;99.90;;;;;;4927888;28;20067;-47
2021/12/23 13:26:04;;;;;;;90.10;42.78;;;0.70;99.90;;;;;;4944396;28;20595;-47
2021/12/23 13:28:34;;;;;;;81.22;39.67;;;0.60;99.90;;;;;;4944597;28;20102;-47
2021/12/23 13:31:06;;;;;;;89.47;44.58;;;0.60;99.90;;;;;;4944338;28;20421;-46
2021/12/23 13:33:41;;;;;;;92.22;45.30;;;0.70;99.90;;;;;;4944466;28;20517;-46
2021/12/23 13:36:14;;;;;;;95.93;46.55;;;0.70;99.90;;;;;;4931225;29;20055;-48
2021/12/23 13:38:42;;;;;;;93.18;45.13;;;0.70;99.90;;;;;;4941466;28;20102;-47
2021/12/23 13:41:20;;;;;;;85.85;42.00;;;0.70;99.90;;;;;;4944605;28;20061;-47
2021/12/23 13:43:46;;;;;;;90.75;43.47;;;0.70;99.90;;;;;;4944850;28;20403;-48
2021/12/23 13:46:13;;;;;;;90.60;44.10;;;0.80;99.90;;;;;;4944748;28;20062;-47